Tiempo atmosférico en la estación meteorológica de Jalance, València/Valencia (372 m.)



Fecha
DESCASC
Temp. máxima en grados centígrados (hora)
DESCASC
Temp. mínima en grados centígrados (hora)
DESCASC
Temp. media en grados centígrados
DESCASC
Racha de viento máxima en m/sg (hora)
DESCASC
Velocidad máxima media en intervalos de 10 minutos(hora)
DESCASC
Precipitaciones diarias en mm
DESCASC
Precipitaciones de 00:00 a 06:00 en mm
DESCASC
Precipitaciones de 06:00 a 12:00 en mm
DESCASC
Precipitaciones de 12:00 a 18:00 en mm
DESCASC
Precipitaciones de 18:00 a 24:00 en mm
DESCASC
23-06-2019 33.4 (15:40) 14.6 (07:20) 24 10 (16:00) 5 (16:10) 0 0 0 0 0
22-06-2019 31.9 (17:00) 14.7 (07:20) 23.3 7.5 (14:00) 5 (14:00) 0 0 0 0 0
21-06-2019 29.8 (14:50) 15.2 (07:00) 22.5 7.5 (17:50) 3.61 (17:50) 0 0 0 0 0
20-06-2019 30.5 (13:40) 14 (00:00) 22.3 11.67 (14:00) 5.83 (15:10) 0 0 0 0 0
19-06-2019 33.5 (18:20) 13.1 (00:00) 23.3 10.83 (12:40) 4.17 (19:00) 0 0 0 0 0
18-06-2019 35.2 (16:40) 13.1 (00:00) 24.2 11.67 (14:30) 6.11 (17:40) 0 0 0 0 0
17-06-2019 34 (16:40) 11.2 (00:00) 22.6 7.5 (17:20) 3.89 (18:20) 0 0 0 0 0
16-06-2019 26.8 (14:50) 11.6 (00:00) 19.2 8.61 (16:00) 4.44 (15:50) 0 0 0 0 0
15-06-2019 29.4 (18:40) 14.1 (00:00) 21.8 11.39 (01:20) 4.72 (00:50) 0 0 0 0 0
14-06-2019 30.8 (16:50) 14.1 (00:00) 22.4 11.39 (22:00) 5.56 (12:20) 0.2 0 0.2 0 0
13-06-2019 23 (19:00) 15.7 (00:00) 19.3 7.78 (13:30) 3.89 (19:40) 0 0 0 0 0
12-06-2019 25.4 (16:00) 6.9 (00:00) 16.1 8.06 (16:40) 3.89 (14:30) 0 0 0 0 0
11-06-2019 25.3 (13:10) 11.8 (00:00) 18.5 8.89 (16:20) 4.17 (17:00) 0 0 0 0 0
10-06-2019 29.7 (17:00) 14.1 (00:00) 21.9 11.39 (19:40) 4.72 (21:50) 0 0 0 0 0
09-06-2019 31 (18:20) 13.1 (00:00) 22.1 9.17 (17:50) 4.17 (17:30) 0 0 0 0 0
08-06-2019 22.7 (15:20) 11.4 (00:00) 17.1 11.11 (15:30) 4.72 (12:40) 0 0 0 0 0
07-06-2019 26.8 (19:00) 10.5 (00:00) 18.6 13.33 (11:30) 4.72 (11:40) 0 0 0 0 0
06-06-2019 27 (14:50) 7.8 (00:00) 17.4 11.39 (16:00) 5 (15:50) 0 0 0 0 0
05-06-2019 25.1 (16:40) 15 (00:00) 20.1 16.94 (10:50) 7.78 (11:40) 0 0 0 0 0
04-06-2019 35.3 (16:00) 12.6 (00:00) 23.9 10 (16:10) 5.56 (17:10) 0 0 0 0 0
03-06-2019 35.6 (16:10) 11.1 (00:00) 23.3 7.22 (17:10) 4.17 (20:30) 0 0 0 0 0
02-06-2019 33.2 (16:10) 9.3 (00:00) 21.3 8.33 (17:50) 4.72 (18:30) 0 0 0 0 0
01-06-2019 30.6 (16:00) 9.6 (00:00) 20.1 8.06 (14:20) 4.17 (13:40) 0 0 0 0 0
31-05-2019 29.9 (16:50) 9.3 (00:00) 19.6 7.78 (19:40) 4.17 (19:40) 0 0 0 0 0
30-05-2019 28.9 (18:00) 7.5 (00:00) 18.2 6.67 (17:00) 3.33 (16:00) 0 0 0 0 0
29-05-2019 27 (17:30) 9.9 (00:00) 18.4 8.89 (17:30) 3.89 (17:50) 0 0 0 0 0
28-05-2019 30.1 (16:40) 10.7 (00:00) 20.4 10.28 (15:00) 4.72 (17:00) 0 0 0 0 0
27-05-2019 30.4 (16:50) 8.9 (00:00) 19.6 9.17 (17:40) 4.44 (18:40) 0 0 0 0 0

Gráficas

Temp. máximas Temp. mínimas Temp. medias Precipitaciones Rachas de viento máximas Velocidades máximas media en intervalos de 10 minutos

Datos horarios

Fecha y hora oficial Temperatura (ºC) Velocidad del viento (km/h) Dirección del viento Racha (km/h) Dirección de racha Precipitación (mm) Presión (hPa) Tendencia (hPa) Humedad (%)
2019-06-25 23:00:00 22.9 7 Sudeste 16 Sudeste 0 -- -- 74
2019-06-25 22:00:00 24.7 8 Sudeste 22 Este 0 -- -- 67
2019-06-25 21:00:00 26.3 8 Este 22 Norte 0 -- -- 60
2019-06-25 20:00:00 28.2 12 Norte 25 Norte 0 -- -- 54
2019-06-25 19:00:00 29.6 11 Este 31 Este 0 -- -- 48
2019-06-25 18:00:00 29.6 16 Sudeste 29 Este 0 -- -- 52
2019-06-25 17:00:00 32.3 10 Nordeste 31 Este 0 -- -- 45
2019-06-25 16:00:00 32.7 13 Norte 32 Nordeste 0 -- -- 42
2019-06-25 15:00:00 32.3 14 Norte 29 Norte 0 -- -- 40
2019-06-25 14:00:00 31 12 Norte 26 Noroeste 0 -- -- 44
2019-06-25 13:00:00 29.4 16 Noroeste 24 Norte 0 -- -- 48
2019-06-25 12:00:00 27.6 7 Norte 17 Norte 0 -- -- 51
2019-06-25 11:00:00 25.6 10 Norte 18 Noroeste 0 -- -- 56
2019-06-25 10:00:00 23.6 4 Nordeste 9 Noroeste 0 -- -- 55
2019-06-25 09:00:00 19.9 2 Nordeste 6 Nordeste 0 -- -- 56
2019-06-25 08:00:00 15.9 0 Calma 3 Sudeste 0 -- -- 70
2019-06-25 07:00:00 14.5 0 Calma 3 Sudeste 0 -- -- 72
2019-06-25 06:00:00 15.2 0 Calma 3 Este 0 -- -- 70
2019-06-25 05:00:00 16 0 Calma 4 Noroeste 0 -- -- 67
2019-06-25 04:00:00 16.8 0 Calma 3 Este 0 -- -- 64
2019-06-25 03:00:00 17.9 0 Calma 4 Sudeste 0 -- -- 60
2019-06-25 02:00:00 19 2 Nordeste 4 Nordeste 0 -- -- 56
2019-06-25 01:00:00 20.1 0 Calma 5 Sudoeste 0 -- -- 51
2019-06-25 00:00:00 21.5 0 Calma 17 Sur 0 -- -- 48
2019-06-24 23:00:00 23.4 7 Sudeste 18 Sudeste 0 -- -- 46
2019-06-24 22:00:00 24.2 3 Oeste 13 Noroeste 0 -- -- 43
2019-06-24 21:00:00 26.4 9 Norte 20 Norte 0 -- -- 38
2019-06-24 20:00:00 28.5 13 Norte 26 Norte 0 -- -- 34
2019-06-24 19:00:00 29.9 9 Este 26 Este 0 -- -- 36
2019-06-24 18:00:00 30.6 8 Este 30 Norte 0 -- -- 38
2019-06-24 17:00:00 30.1 10 Este 30 Norte 0 -- -- 39
2019-06-24 16:00:00 30.2 15 Norte 29 Norte 0 -- -- 36
2019-06-24 15:00:00 29.7 13 Nordeste 35 Nordeste 0 -- -- 40
2019-06-24 14:00:00 29.8 13 Nordeste 26 Norte 0 -- -- 34
2019-06-24 13:00:00 29.3 9 Nordeste 23 Norte 0 -- -- 34
2019-06-24 12:00:00 28.3 11 Norte 21 Norte 0 -- -- 36
2019-06-24 11:00:00 26.2 5 Norte 12 Nordeste 0 -- -- 43
2019-06-24 10:00:00 22.9 4 Este 8 Este 0 -- -- 55
2019-06-24 09:00:00 18.9 2 Este 5 Nordeste 0 -- -- 63
2019-06-24 08:00:00 15.3 0 Calma 4 Sudeste 0 -- -- 75
2019-06-24 07:00:00 14.2 0 Calma 2 Noroeste 0 -- -- 78
2019-06-24 06:00:00 14.5 0 Calma 4 Sudeste 0 -- -- 76
2019-06-24 05:00:00 15.3 0 Calma 4 Sudeste 0 -- -- 72
2019-06-24 04:00:00 16.3 0 Calma 4 Sudoeste 0 -- -- 69
2019-06-24 03:00:00 17.1 0 Calma 3 Sudeste 0 -- -- 64
2019-06-24 02:00:00 18.6 0 Calma 6 Norte 0 -- -- 61
2019-06-24 01:00:00 19.9 3 Este 8 Norte 0 -- -- 55
2019-06-24 00:00:00 21.8 0 Calma 11 Norte 0 -- -- 49
2019-06-23 23:00:00 22.8 8 Norte 18 Norte 0 -- -- 44
2019-06-23 22:00:00 24.5 8 Norte 20 Norte 0 -- -- 39
2019-06-23 21:00:00 27.3 9 Norte 21 Sudeste 0 -- -- 31
2019-06-23 20:00:00 30.1 6 Sudeste 30 Este 0 -- -- 25
2019-06-23 19:00:00 31.5 8 Este 35 Sudeste 0 -- -- 28
2019-06-23 18:00:00 32 14 Este 33 Este 0 -- -- 29
2019-06-23 17:00:00 33.2 12 Este 32 Norte 0 -- -- 29
2019-06-23 16:00:00 33 15 Norte 36 Norte 0 -- -- 32
2019-06-23 15:00:00 33.3 14 Norte 31 Norte 0 -- -- 28
2019-06-23 14:00:00 32.9 10 Norte 24 Noroeste 0 -- -- 30
2019-06-23 13:00:00 32.3 9 Norte 17 Norte 0 -- -- 30
2019-06-23 12:00:00 30.6 6 Nordeste 12 Norte 0 -- -- 28
2019-06-23 11:00:00 27 5 Sudeste 9 Nordeste 0 -- -- 43
2019-06-23 10:00:00 23.5 4 Este 8 Sudeste 0 -- -- 53
2019-06-23 09:00:00 19.8 4 Este 7 Este 0 -- -- 67
2019-06-23 08:00:00 15.6 0 Calma 3 Sudeste 0 -- -- 88
2019-06-23 07:00:00 14.9 0 Calma 2 Noroeste 0 -- -- 87
2019-06-23 06:00:00 15.6 0 Calma 2 Nordeste 0 -- -- 85
2019-06-23 05:00:00 16.5 0 Calma 3 Este 0 -- -- 83
2019-06-23 04:00:00 17.5 0 Calma 4 Norte 0 -- -- 80
2019-06-23 03:00:00 19.3 4 Norte 13 Noroeste 0 -- -- 74
2019-06-23 02:00:00 19.6 8 Noroeste 14 Noroeste 0 -- -- 74
2019-06-23 01:00:00 20.3 9 Noroeste 18 Noroeste 0 -- -- 73
2019-06-23 00:00:00 21.2 12 Noroeste 17 Noroeste 0 -- -- 70
2019-06-22 23:00:00 22.2 12 Noroeste 17 Norte 0 -- -- 63
2019-06-22 22:00:00 23.3 9 Noroeste 19 Norte 0 -- -- 59
2019-06-22 21:00:00 24.9 13 Noroeste 19 Noroeste 0 -- -- 55
2019-06-22 20:00:00 27.9 10 Sudeste 24 Este 0 -- -- 49
2019-06-22 19:00:00 28.5 8 Sudeste 25 Sudeste 0 -- -- 47
2019-06-22 18:00:00 30.2 12 Este 26 Este 0 -- -- 43
2019-06-22 17:00:00 31.9 8 Este 20 Este 0 -- -- 39
2019-06-22 16:00:00 31.1 10 Sudeste 26 Sudeste 0 -- -- 40
2019-06-22 15:00:00 30.7 9 Este 24 Nordeste 0 -- -- 40
2019-06-22 14:00:00 28.7 18 Norte 27 Norte 0 -- -- 44
2019-06-22 13:00:00 27.5 10 Norte 24 Norte 0 -- -- 45
2019-06-22 12:00:00 26.5 7 Norte 16 Norte 0 -- -- 48
2019-06-22 11:00:00 24.9 4 Norte 12 Nordeste 0 -- -- 53
2019-06-22 10:00:00 23 3 Norte 7 Este 0 -- -- 57
2019-06-22 09:00:00 20.2 3 Este 5 Este 0 -- -- 67
2019-06-22 08:00:00 15.8 0 Calma 3 Este 0 -- -- 80
2019-06-22 07:00:00 14.9 0 Calma 2 Noroeste 0 -- -- 80
2019-06-22 06:00:00 15.3 0 Calma 3 Sudeste 0 -- -- 80
2019-06-22 05:00:00 16 0 Calma 2 Sudeste 0 -- -- 77
2019-06-22 04:00:00 16.8 0 Calma 3 Norte 0 -- -- 74
2019-06-22 03:00:00 17.8 2 Nordeste 8 Norte 0 -- -- 70
2019-06-22 02:00:00 18.7 5 Norte 8 Norte 0 -- -- 67
2019-06-22 01:00:00 19.5 3 Sudoeste 5 Sudoeste 0 -- -- 63
2019-06-22 00:00:00 20.7 2 Sudeste 15 Sur 0 -- -- 60
2019-06-21 23:00:00 21.3 5 Sur 13 Sudoeste 0 -- -- 58
2019-06-21 22:00:00 22.1 5 Sur 17 Sur 0 -- -- 57
2019-06-21 21:00:00 23.3 10 Sudeste 22 Sudeste 0 -- -- 56
2019-06-21 20:00:00 25.6 11 Este 25 Este 0 -- -- 54
2019-06-21 19:00:00 27.5 9 Este 22 Este 0 -- -- 50
2019-06-21 18:00:00 28.6 9 Sudeste 27 Este 0 -- -- 47
2019-06-21 17:00:00 29.5 12 Sudeste 24 Sur 0 -- -- 44
2019-06-21 16:00:00 29.6 9 Este 25 Este 0 -- -- 43
2019-06-21 15:00:00 29.8 6 Norte 22 Nordeste 0 -- -- 40
2019-06-21 14:00:00 28.6 6 Norte 19 Nordeste 0 -- -- 43
2019-06-21 13:00:00 27.5 9 Noroeste 17 Noroeste 0 -- -- 46
2019-06-21 12:00:00 25.9 6 Nordeste 16 Nordeste 0 -- -- 51
2019-06-21 11:00:00 24.7 5 Nordeste 16 Este 0 -- -- 53
2019-06-21 10:00:00 22.7 4 Este 8 Este 0 -- -- 63
2019-06-21 09:00:00 19.7 2 Este 4 Este 0 -- -- 70
2019-06-21 08:00:00 16.7 0 Calma 3 Nordeste 0 -- -- 81
2019-06-21 07:00:00 15.2 0 Calma 2 Este 0 -- -- 83
2019-06-21 06:00:00 15.9 0 Calma 3 Este 0 -- -- 83
2019-06-21 05:00:00 16.2 0 Calma 4 Este 0 -- -- 79
2019-06-21 04:00:00 17.1 3 Oeste 8 Noroeste 0 -- -- 77
2019-06-21 03:00:00 18.4 6 Noroeste 10 Noroeste 0 -- -- 76
2019-06-21 02:00:00 18.3 3 Norte 7 Norte 0 -- -- 68
2019-06-21 01:00:00 19.5 2 Noroeste 8 Noroeste 0 -- -- 66
2019-06-21 00:00:00 20.6 5 Noroeste 10 Noroeste 0 -- -- 66
2019-06-20 23:00:00 21.7 3 Noroeste 9 Norte 0 -- -- 56
2019-06-20 22:00:00 23.8 7 Sudeste 14 Este 0 -- -- 47
2019-06-20 21:00:00 25.3 4 Este 15 Norte 0 -- -- 50
2019-06-20 20:00:00 26.4 11 Norte 25 Nordeste 0 -- -- 46
2019-06-20 19:00:00 27.2 14 Norte 27 Nordeste 0 -- -- 43
2019-06-20 18:00:00 28.2 9 Nordeste 31 Norte 0 -- -- 39
2019-06-20 17:00:00 27.7 15 Norte 31 Norte 0 -- -- 42
2019-06-20 16:00:00 27.7 13 Norte 35 Norte 0 -- -- 44
2019-06-20 15:00:00 28.3 16 Norte 37 Norte 0 -- -- 45
2019-06-20 14:00:00 29.1 17 Nordeste 42 Norte 0 -- -- 42
2019-06-20 13:00:00 29.4 13 Norte 25 Norte 0 -- -- 40
2019-06-20 12:00:00 29.1 9 Norte 18 Nordeste 0 -- -- 33
2019-06-20 11:00:00 27.1 4 Este 11 Este 0 -- -- 38
2019-06-20 10:00:00 24.1 3 Este 8 Este 0 -- -- 43
2019-06-20 09:00:00 20.5 3 Este 6 Este 0 -- -- 51
2019-06-20 08:00:00 15.4 0 Calma 2 Nordeste 0 -- -- 65
2019-06-20 07:00:00 14.1 0 Calma 3 Norte 0 -- -- 67
2019-06-20 06:00:00 14.8 0 Calma 2 Sudoeste 0 -- -- 65
2019-06-20 05:00:00 15.6 0 Calma 4 Este 0 -- -- 62
2019-06-20 04:00:00 16.5 0 Calma 4 Sudeste 0 -- -- 59
2019-06-20 03:00:00 17.4 0 Calma 4 Sudeste 0 -- -- 56
2019-06-20 02:00:00 18.9 0 Calma 4 Este 0 -- -- 52
2019-06-20 01:00:00 20.5 0 Calma 2 Sudoeste 0 -- -- 49
2019-06-20 00:00:00 22.3 0 Calma 5 Sudeste 0 -- -- 46
2019-06-19 23:00:00 24.2 0 Calma 6 Norte 0 -- -- 40
2019-06-19 22:00:00 26.9 0 Calma 11 Noroeste 0 -- -- 34
2019-06-19 21:00:00 29.9 6 Oeste 13 Noroeste 0 -- -- 28
2019-06-19 20:00:00 32.6 8 Noroeste 26 Noroeste 0 -- -- 25
2019-06-19 19:00:00 32.9 15 Noroeste 31 Norte 0 -- -- 25
2019-06-19 18:00:00 33.4 8 Sudeste 29 Noroeste 0 -- -- 25
2019-06-19 17:00:00 33 9 Norte 33 Noroeste 0 -- -- 25
2019-06-19 16:00:00 32.5 11 Noroeste 33 Sur 0 -- -- 25
2019-06-19 15:00:00 32.2 7 Sur 35 Sur 0 -- -- 26
2019-06-19 14:00:00 30.9 6 Nordeste 30 Sur 0 -- -- 28
2019-06-19 13:00:00 29.7 11 Sur 39 Sudoeste 0 -- -- 31
2019-06-19 12:00:00 28.2 7 Oeste 28 Noroeste 0 -- -- 37
2019-06-19 11:00:00 26.7 6 Noroeste 27 Este 0 -- -- 39
2019-06-19 10:00:00 24.7 12 Sudoeste 24 Sudoeste 0 -- -- 41
2019-06-19 09:00:00 20.1 4 Este 8 Este 0 -- -- 46
2019-06-19 08:00:00 14.8 0 Calma 5 Sudeste 0 -- -- 64
2019-06-19 07:00:00 13.4 2 Sudeste 5 Sudoeste 0 -- -- 68
2019-06-19 06:00:00 14.1 2 Sur 4 Sur 0 -- -- 65
2019-06-19 05:00:00 14.8 0 Calma 6 Sudeste 0 -- -- 64
2019-06-19 04:00:00 15.7 0 Calma 8 Sudoeste 0 -- -- 63
2019-06-19 03:00:00 16.8 0 Calma 6 Sudeste 0 -- -- 57
2019-06-19 02:00:00 18.3 0 Calma 4 Oeste 0 -- -- 54
2019-06-19 01:00:00 20.5 0 Calma 4 Norte 0 -- -- 47
2019-06-19 00:00:00 22.7 2 Norte 10 Oeste 0 -- -- 43
2019-06-18 23:00:00 25 3 Noroeste 15 Sudoeste 0 -- -- 37
2019-06-18 22:00:00 27 8 Sudeste 24 Sudeste 0 -- -- 33
2019-06-18 21:00:00 29.7 10 Sur 24 Sur 0 -- -- 29
2019-06-18 20:00:00 30.3 10 Noroeste 23 Norte 0 -- -- 32
2019-06-18 19:00:00 -- -- -- -- -- -- -- -- --
2019-06-18 18:00:00 32 15 Norte 42 Norte 0 -- -- 31
2019-06-18 17:00:00 35.1 10 Sudeste 27 Sudeste 0 -- -- 16
2019-06-18 16:00:00 34.8 11 Este 30 Sudeste 0 -- -- 17
2019-06-18 15:00:00 34.4 14 Sudeste 42 Sudeste 0 -- -- 17
2019-06-18 14:00:00 33.5 18 Sudeste 34 Sudeste 0 -- -- 19
2019-06-18 13:00:00 31.5 6 Norte 17 Norte 0 -- -- 22
2019-06-18 12:00:00 29.2 6 Noroeste 14 Norte 0 -- -- 25
2019-06-18 11:00:00 26.2 6 Norte 12 Norte 0 -- -- 30
2019-06-18 10:00:00 23.5 4 Este 7 Este 0 -- -- 39
2019-06-18 09:00:00 19.7 2 Este 5 Este 0 -- -- 47
2019-06-18 08:00:00 14.5 0 Calma 2 Este 0 -- -- 64
2019-06-18 07:00:00 13.2 0 Calma 2 Sur 0 -- -- 65
2019-06-18 06:00:00 14.1 0 Calma 2 Sudoeste 0 -- -- 62
2019-06-18 05:00:00 15 0 Calma 6 Sudeste 0 -- -- 59
2019-06-18 04:00:00 16.7 0 Calma 5 Noroeste 0 -- -- 55
2019-06-18 03:00:00 18.5 4 Noroeste 6 Noroeste 0 -- -- 49
2019-06-18 02:00:00 20 0 Calma 12 Sudeste 0 -- -- 46
2019-06-18 01:00:00 21 2 Nordeste 17 Sudeste 0 -- -- 43
2019-06-18 00:00:00 22.2 5 Este 21 Sudeste 0 -- -- 42
2019-06-17 23:00:00 24.4 7 Sudeste 21 Sudeste 0 -- -- 38
2019-06-17 22:00:00 26 0 Calma 20 Este 0 -- -- 35
2019-06-17 21:00:00 28.6 10 Sudeste 24 Sudeste 0 -- -- 31
2019-06-17 20:00:00 30.6 8 Sudeste 26 Sudeste 0 -- -- 29
2019-06-17 19:00:00 31.6 13 Sudeste 26 Sudeste 0 -- -- 28
2019-06-17 18:00:00 32.8 11 Sudeste 27 Este 0 -- -- 27
2019-06-17 17:00:00 34 5 Nordeste 20 Este 0 -- -- 21
2019-06-17 16:00:00 33.4 6 Nordeste 22 Norte 0 -- -- 20
2019-06-17 15:00:00 33.1 6 Sudeste 22 Noroeste 0 -- -- 21
2019-06-17 14:00:00 32.4 9 Norte 20 Noroeste 0 -- -- 22
2019-06-17 13:00:00 30.9 9 Sur 21 Sudoeste 0 -- -- 23
2019-06-17 12:00:00 27.9 6 Este 13 Norte 0 -- -- 33
2019-06-17 11:00:00 24.1 6 Este 11 Este 0 -- -- 48
2019-06-17 10:00:00 21 3 Este 7 Este 0 -- -- 55
2019-06-17 09:00:00 16.9 0 Calma 4 Nordeste 0 -- -- 68
2019-06-17 08:00:00 12.4 0 Calma 2 Sudeste 0 -- -- 87
2019-06-17 07:00:00 11.4 0 Calma 3 Sudoeste 0 -- -- 89
2019-06-17 06:00:00 12 0 Calma 2 Sudeste 0 -- -- 87
2019-06-17 05:00:00 12.6 0 Calma 2 Sudoeste 0 -- -- 86
2019-06-17 04:00:00 13.2 0 Calma 5 Sudeste 0 -- -- 84
2019-06-17 03:00:00 14.1 0 Calma 4 Sur 0 -- -- 81
2019-06-17 02:00:00 15.5 0 Calma 4 Este 0 -- -- 76
2019-06-17 01:00:00 16.8 0 Calma 5 Este 0 -- -- 72
2019-06-17 00:00:00 18.2 3 Norte 8 Noroeste 0 -- -- 67
2019-06-16 23:00:00 19.6 4 Noroeste 10 Noroeste 0 -- -- 62
2019-06-16 22:00:00 21.3 8 Noroeste 12 Noroeste 0 -- -- 57
2019-06-16 21:00:00 22.8 0 Calma 17 Este 0 -- -- 55
2019-06-16 20:00:00 23.6 8 Sudeste 15 Sudeste 0 -- -- 53
2019-06-16 19:00:00 24.7 6 Este 20 Norte 0 -- -- 48
2019-06-16 18:00:00 24.7 14 Norte 26 Norte 0 -- -- 48
2019-06-16 17:00:00 25.5 13 Norte 26 Norte 0 -- -- 45
2019-06-16 16:00:00 26.2 14 Norte 31 Norte 0 -- -- 44
2019-06-16 15:00:00 26.8 8 Sur 16 Sudeste 0 -- -- 43
2019-06-16 14:00:00 25.5 9 Sudeste 22 Norte 0 -- -- 41
2019-06-16 13:00:00 23.4 13 Norte 26 Norte 0 -- -- 53
2019-06-16 12:00:00 24.3 8 Este 20 Este 0 -- -- 50
2019-06-16 11:00:00 22.8 8 Sudeste 20 Sudeste 0 -- -- 52
2019-06-16 10:00:00 21.3 4 Sudeste 12 Sudeste 0 -- -- 57
2019-06-16 09:00:00 19.2 3 Sudeste 9 Este 0 -- -- 63
2019-06-16 08:00:00 16.3 3 Noroeste 12 Este 0 -- -- 73
2019-06-16 07:00:00 13.9 4 Norte 9 Noroeste 0 -- -- 79
2019-06-16 06:00:00 11.6 0 Calma 8 Sudeste 0 -- -- 70
2019-06-16 05:00:00 12.6 0 Calma 6 Sudeste 0 -- -- 66
2019-06-16 04:00:00 13.8 0 Calma 4 Este 0 -- -- 62
2019-06-16 03:00:00 14.6 0 Calma 2 Este 0 -- -- 60
2019-06-16 02:00:00 15.9 0 Calma 6 Oeste 0 -- -- 61
2019-06-16 01:00:00 18.5 3 Noroeste 13 Noroeste 0 -- -- 56
2019-06-16 00:00:00 20.3 6 Noroeste 20 Noroeste 0 -- -- 49
2019-06-15 23:00:00 21.7 10 Noroeste 18 Noroeste 0 -- -- 47
2019-06-15 22:00:00 22.3 0 Calma 9 Noroeste 0 -- -- 29
2019-06-15 21:00:00 25.5 5 Noroeste 13 Noroeste 0 -- -- 24
2019-06-15 20:00:00 28.8 6 Norte 21 Sur 0 -- -- 21
2019-06-15 19:00:00 29 6 Noroeste 26 Nordeste 0 -- -- 22
2019-06-15 18:00:00 28.9 9 Noroeste 28 Noroeste 0 -- -- 23
2019-06-15 17:00:00 28.6 11 Noroeste 37 Noroeste 0 -- -- 22
2019-06-15 16:00:00 28.3 13 Sur 32 Sur 0 -- -- 23
2019-06-15 15:00:00 27.5 9 Sudoeste 33 Sudeste 0 -- -- 24
2019-06-15 14:00:00 26.3 8 Este 27 Sudoeste 0 -- -- 27
2019-06-15 13:00:00 25.1 7 Noroeste 33 Norte 0 -- -- 30
2019-06-15 12:00:00 23.2 17 Noroeste 41 Noroeste 0 -- -- 32
2019-06-15 11:00:00 21.2 13 Noroeste 26 Oeste 0 -- -- 38
2019-06-15 10:00:00 20 12 Noroeste 26 Oeste 0 -- -- 38
2019-06-15 09:00:00 18.9 5 Sudeste 16 Noroeste 0 -- -- 41
2019-06-15 08:00:00 16.4 7 Sur 13 Sur 0 -- -- 46
2019-06-15 07:00:00 14.6 2 Sudeste 11 Norte 0 -- -- 50
2019-06-15 06:00:00 16.1 5 Nordeste 18 Sudeste 0 -- -- 44
2019-06-15 05:00:00 17.7 9 Este 20 Este 0 -- -- 41
2019-06-15 04:00:00 19.2 8 Oeste 25 Noroeste 0 -- -- 37
2019-06-15 03:00:00 20.1 8 Norte 25 Noroeste 0 -- -- 34
2019-06-15 02:00:00 21 9 Noroeste 41 Noroeste 0 -- -- 33
2019-06-15 01:00:00 22 11 Noroeste 31 Noroeste 0 -- -- 29
2019-06-15 00:00:00 23.6 8 Norte 36 Noroeste 0 -- -- 24
2019-06-14 23:00:00 24.7 10 Noroeste 33 Noroeste 0 -- -- 20
2019-06-14 22:00:00 26.1 17 Noroeste 41 Noroeste 0 -- -- 19
2019-06-14 21:00:00 27.4 10 Noroeste 29 Norte 0 -- -- 23
2019-06-14 20:00:00 29.4 9 Noroeste 27 Norte 0 -- -- 21
2019-06-14 19:00:00 30.3 10 Noroeste 30 Noroeste 0 -- -- 21
2019-06-14 18:00:00 30.5 10 Sudeste 35 Noroeste 0 -- -- 23
2019-06-14 17:00:00 30.6 9 Este 34 Noroeste 0 -- -- 25
2019-06-14 16:00:00 30.3 9 Noroeste 30 Noroeste 0 -- -- 25
2019-06-14 15:00:00 29 9 Sur 26 Sur 0 -- -- 26
2019-06-14 14:00:00 28.1 13 Sur 34 Sur 0 -- -- 28
2019-06-14 13:00:00 27 10 Norte 38 Noroeste 0 -- -- 30
2019-06-14 12:00:00 25.8 14 Noroeste 40 Noroeste 0 -- -- 32
2019-06-14 11:00:00 24.2 10 Norte 33 Noroeste 0 -- -- 37
2019-06-14 10:00:00 19.6 8 Nordeste 28 Sur 0 -- -- 53
2019-06-14 09:00:00 16.6 6 Nordeste 17 Norte 0 -- -- 75
2019-06-14 08:00:00 15.3 0 Calma 6 Nordeste 0 -- -- 78
2019-06-14 07:00:00 14.1 3 Oeste 9 Oeste 0.2 -- -- 85
2019-06-14 06:00:00 14.8 4 Oeste 14 Noroeste 0 -- -- 79
2019-06-14 05:00:00 14.9 3 Noroeste 7 Noroeste 0 -- -- 76
2019-06-14 04:00:00 15 0 Calma 6 Norte -- -- -- 76
2019-06-14 03:00:00 14.9 3 Sur 15 Sudoeste 0 -- -- 76
2019-06-14 02:00:00 14.8 0 Calma 3 Sudeste 0 -- -- 75
2019-06-14 01:00:00 15.7 2 Noroeste 7 Sur 0 -- -- 72
2019-06-14 00:00:00 16.6 2 Sur 15 Sur 0 -- -- 71
2019-06-13 23:00:00 17.3 6 Sur 15 Sur 0 -- -- 70
2019-06-13 22:00:00 18.4 6 Sudeste 16 Este 0 -- -- 66
2019-06-13 21:00:00 19.9 7 Este 24 Sudeste 0 -- -- 62
2019-06-13 20:00:00 21.5 10 Este 27 Este 0 -- -- 57
2019-06-13 19:00:00 23 8 Este 23 Sudeste 0 -- -- 51
2019-06-13 18:00:00 22.5 11 Sudeste 23 Este 0 -- -- 52
2019-06-13 17:00:00 21.2 8 Sudeste 26 Nordeste 0 -- -- 58
2019-06-13 16:00:00 20.9 7 Este 26 Norte 0 -- -- 62
2019-06-13 15:00:00 20.5 13 Norte 26 Norte 0 -- -- 65
2019-06-13 14:00:00 20.5 12 Norte 28 Norte 0 -- -- 64
2019-06-13 13:00:00 20.1 9 Norte 18 Nordeste 0 -- -- 68
2019-06-13 12:00:00 18 2 Oeste 23 Norte 0 -- -- 74
2019-06-13 11:00:00 17.7 7 Nordeste 19 Nordeste 0 -- -- 74
2019-06-13 10:00:00 17.6 10 Norte 15 Norte 0 -- -- 74
2019-06-13 09:00:00 16.6 6 Noroeste 13 Norte 0 -- -- 78
2019-06-13 08:00:00 15.8 6 Norte 14 Noroeste 0 -- -- 81
2019-06-13 07:00:00 15.8 10 Noroeste 17 Norte 0 -- -- 83
2019-06-13 06:00:00 16.1 9 Noroeste 14 Noroeste 0 -- -- 82
2019-06-13 05:00:00 17.3 3 Sudeste 14 Sudeste 0 -- -- 75
2019-06-13 04:00:00 17.5 4 Sur 17 Sudeste 0 -- -- 71
2019-06-13 03:00:00 17.5 8 Sudeste 18 Este 0 -- -- 71
2019-06-13 02:00:00 17.5 9 Sudeste 21 Sudeste 0 -- -- 71
2019-06-13 01:00:00 17.4 2 Sudeste 6 Sudeste 0 -- -- 72
2019-06-13 00:00:00 17.1 0 Calma 8 Sudeste 0 -- -- 72
2019-06-12 23:00:00 16.8 4 Sudeste 11 Sudeste 0 -- -- 71
2019-06-12 22:00:00 17.4 6 Sudeste 20 Sudeste 0 -- -- 65
2019-06-12 21:00:00 19.2 6 Este 19 Este 0 -- -- 45
2019-06-12 20:00:00 21.1 8 Sudeste 25 Este 0 -- -- 46
2019-06-12 19:00:00 22.3 11 Este 25 Este 0 -- -- 44
2019-06-12 18:00:00 23.5 12 Nordeste 29 Sudeste 0 -- -- 43
2019-06-12 17:00:00 23.7 12 Este 29 Este 0 -- -- 42
2019-06-12 16:00:00 25.4 6 Este 22 Este 0 -- -- 37
2019-06-12 15:00:00 23.7 6 Sur 28 Sudeste 0 -- -- 39
2019-06-12 14:00:00 23.2 8 Sudeste 24 Este 0 -- -- 39
2019-06-12 13:00:00 22.2 6 Nordeste 21 Este 0 -- -- 41
2019-06-12 12:00:00 20.5 7 Sur 19 Sudeste 0 -- -- 45
2019-06-12 11:00:00 18.6 5 Nordeste 10 Nordeste 0 -- -- 53
2019-06-12 10:00:00 15.6 3 Norte 7 Este 0 -- -- 63
2019-06-12 09:00:00 11.7 3 Nordeste 5 Nordeste 0 -- -- 76
2019-06-12 08:00:00 7.5 0 Calma 2 Sur 0 -- -- 92
2019-06-12 07:00:00 7 0 Calma 2 Sudeste 0 -- -- 90
2019-06-12 06:00:00 7.4 0 Calma 2 Sur 0 -- -- 88
2019-06-12 05:00:00 8 0 Calma 4 Sudeste 0 -- -- 87
2019-06-12 04:00:00 8.7 0 Calma 3 Sur 0 -- -- 86
2019-06-12 03:00:00 9.6 0 Calma 4 Sudeste 0 -- -- 82
2019-06-12 02:00:00 10.7 2 Sudeste 3 Sudeste 0 -- -- 79
2019-06-12 01:00:00 12 0 Calma 4 Sudeste 0 -- -- 75
2019-06-12 00:00:00 13.5 0 Calma 6 Sudeste 0 -- -- 70
2019-06-11 23:00:00 14.9 3 Sur 12 Sudeste 0 -- -- 64
2019-06-11 22:00:00 15.6 4 Sudeste 11 Sudeste 0 -- -- 61
2019-06-11 21:00:00 17 6 Sudeste 13 Sudeste 0 -- -- 59
2019-06-11 20:00:00 17.4 6 Sudeste 20 Sudeste 0 -- -- 59
2019-06-11 19:00:00 17.7 3 Este 21 Este 0 -- -- 59
2019-06-11 18:00:00 18.5 9 Este 26 Sudeste 0 -- -- 57
2019-06-11 17:00:00 20.1 15 Sudeste 32 Sudeste 0 -- -- 54
2019-06-11 16:00:00 22.4 14 Este 27 Norte 0 -- -- 49
2019-06-11 15:00:00 24.1 13 Este 24 Este 0 -- -- 44
2019-06-11 14:00:00 24.7 11 Sudeste 24 Este 0 -- -- 44
2019-06-11 13:00:00 25.1 9 Este 21 Noroeste 0 -- -- 38
2019-06-11 12:00:00 24 8 Norte 17 Nordeste 0 -- -- 38
2019-06-11 11:00:00 22.3 9 Sudeste 15 Este 0 -- -- 43
2019-06-11 10:00:00 19.4 3 Sudeste 8 Sudeste 0 -- -- 65
2019-06-11 09:00:00 15.9 2 Nordeste 5 Este 0 -- -- 75
2019-06-11 08:00:00 12.4 0 Calma 2 Este 0 -- -- 86
2019-06-11 07:00:00 11.9 0 Calma 2 Nordeste 0 -- -- 86
2019-06-11 06:00:00 12.6 0 Calma 2 Norte 0 -- -- 83
2019-06-11 05:00:00 13.8 0 Calma 6 Noroeste 0 -- -- 83
2019-06-11 04:00:00 15.8 2 Noroeste 13 Noroeste 0 -- -- 79
2019-06-11 03:00:00 16.5 8 Noroeste 17 Noroeste 0 -- -- 77
2019-06-11 02:00:00 16.9 6 Noroeste 17 Noroeste 0 -- -- 77
2019-06-11 01:00:00 17.5 11 Noroeste 19 Noroeste 0 -- -- 76
2019-06-11 00:00:00 18.3 11 Noroeste 20 Noroeste 0 -- -- 72
2019-06-10 23:00:00 19.3 13 Noroeste 24 Noroeste 0 -- -- 69
2019-06-10 22:00:00 21 16 Noroeste 23 Noroeste 0 -- -- 61
2019-06-10 21:00:00 26 5 Noroeste 22 Noroeste 0 -- -- 26
2019-06-10 20:00:00 28.6 8 Noroeste 41 Noroeste 0 -- -- 21
2019-06-10 19:00:00 29 10 Noroeste 28 Noroeste 0 -- -- 22
2019-06-10 18:00:00 28.6 9 Norte 32 Sudoeste 0 -- -- 22
2019-06-10 17:00:00 29.7 9 Oeste 33 Sur 0 -- -- 20
2019-06-10 16:00:00 29.1 11 Oeste 40 Sur 0 -- -- 20
2019-06-10 15:00:00 29.1 10 Noroeste 26 Noroeste 0 -- -- 21
2019-06-10 14:00:00 28.4 9 Sur 39 Sudoeste 0 -- -- 21
2019-06-10 13:00:00 27.2 11 Noroeste 31 Norte 0 -- -- 24
2019-06-10 12:00:00 25.8 13 Noroeste 28 Noroeste 0 -- -- 28
2019-06-10 11:00:00 24.9 6 Este 14 Este 0 -- -- 32
2019-06-10 10:00:00 22.3 5 Este 14 Norte 0 -- -- 35
2019-06-10 09:00:00 18.2 11 Norte 19 Norte 0 -- -- 42
2019-06-10 08:00:00 15.6 2 Nordeste 6 Noroeste 0 -- -- 48
2019-06-10 07:00:00 14.3 0 Calma 12 Sudoeste 0 -- -- 46
2019-06-10 06:00:00 14.7 4 Norte 13 Sudoeste 0 -- -- 46
2019-06-10 05:00:00 15 0 Calma 6 Norte 0 -- -- 46
2019-06-10 04:00:00 15.9 3 Norte 11 Este 0 -- -- 45
2019-06-10 03:00:00 14.8 0 Calma 12 Este 0 -- -- 62
2019-06-10 02:00:00 14.9 0 Calma 5 Sudeste 0 -- -- 63
2019-06-10 01:00:00 17.2 0 Calma 6 Oeste 0 -- -- 56
2019-06-10 00:00:00 19.2 4 Noroeste 13 Norte 0 -- -- 50
2019-06-09 23:00:00 21.4 9 Norte 19 Noroeste 0 -- -- 45
2019-06-09 22:00:00 23.6 12 Norte 19 Norte 0 -- -- 39
2019-06-09 21:00:00 26.3 6 Noroeste 16 Noroeste 0 -- -- 28
2019-06-09 20:00:00 30.1 8 Noroeste 19 Noroeste 0 -- -- 22
2019-06-09 19:00:00 31 7 Noroeste 23 Norte 0 -- -- 21
2019-06-09 18:00:00 30.4 4 Sudoeste 33 Sur 0 -- -- 22
2019-06-09 17:00:00 27.3 10 Sudeste 24 Sudeste 0 -- -- 35
2019-06-09 16:00:00 22 3 Sudeste 9 Nordeste 0 -- -- 52
2019-06-09 15:00:00 21.1 3 Oeste 10 Nordeste 0 -- -- 53
2019-06-09 14:00:00 20.2 3 Norte 13 Nordeste 0 -- -- 55
2019-06-09 13:00:00 18.5 3 Norte 17 Norte 0 -- -- 59
2019-06-09 12:00:00 17.5 8 Norte 17 Norte 0 -- -- 62
2019-06-09 11:00:00 18.2 3 Nordeste 13 Nordeste 0 -- -- 56
2019-06-09 10:00:00 16.3 5 Norte 13 Norte 0 -- -- 65
2019-06-09 09:00:00 15.1 4 Norte 10 Norte 0 -- -- 68
2019-06-09 08:00:00 13.7 3 Sudeste 8 Norte 0 -- -- 79
2019-06-09 07:00:00 13.4 0 Calma 8 Noroeste 0 -- -- 79
2019-06-09 06:00:00 13.5 3 Norte 7 Nordeste 0 -- -- 77
2019-06-09 05:00:00 13.3 6 Noroeste 12 Noroeste 0 -- -- 80
2019-06-09 04:00:00 13.6 0 Calma 4 Noroeste 0 -- -- 79
2019-06-09 03:00:00 14.2 0 Calma 8 Norte 0 -- -- 78
2019-06-09 02:00:00 14.5 4 Noroeste 7 Noroeste 0 -- -- 77
2019-06-09 01:00:00 15.6 2 Noroeste 12 Noroeste 0 -- -- 73
2019-06-09 00:00:00 16.1 8 Norte 14 Noroeste 0 -- -- 73
2019-06-08 23:00:00 16.6 5 Norte 13 Norte 0 -- -- 70
2019-06-08 22:00:00 17.7 5 Norte 15 Sudeste 0 -- -- 64
2019-06-08 21:00:00 19 0 Calma 23 Este 0 -- -- 57
2019-06-08 20:00:00 19.7 9 Sudeste 19 Sudeste 0 -- -- 58
2019-06-08 19:00:00 20.9 10 Sudeste 22 Sudeste 0 -- -- 54
2019-06-08 18:00:00 21.5 9 Sudeste 29 Este 0 -- -- 52
2019-06-08 17:00:00 22.1 15 Este 32 Este 0 -- -- 50
2019-06-08 16:00:00 22.3 14 Sudeste 40 Sudeste 0 -- -- 49
2019-06-08 15:00:00 22.1 14 Nordeste 38 Nordeste 0 -- -- 50
2019-06-08 14:00:00 21.7 14 Nordeste 36 Este 0 -- -- 51
2019-06-08 13:00:00 21.5 13 Este 33 Este 0 -- -- 52
2019-06-08 12:00:00 20 9 Nordeste 32 Este 0 -- -- 58
2019-06-08 11:00:00 20 12 Este 27 Este 0 -- -- 58
2019-06-08 10:00:00 18.9 6 Nordeste 18 Norte 0 -- -- 67
2019-06-08 09:00:00 17.9 10 Norte 24 Norte 0 -- -- 69
2019-06-08 08:00:00 14.7 2 Norte 6 Sudeste 0 -- -- 75
2019-06-08 07:00:00 11.8 2 Sur 7 Sudeste 0 -- -- 75
2019-06-08 06:00:00 11.9 0 Calma 5 Este 0 -- -- 70
2019-06-08 05:00:00 12.1 0 Calma 4 Oeste 0 -- -- 69
2019-06-08 04:00:00 13.1 2 Noroeste 5 Norte 0 -- -- 63
2019-06-08 03:00:00 14.1 0 Calma 4 Este 0 -- -- 58
2019-06-08 02:00:00 15.2 0 Calma 4 Este 0 -- -- 50
2019-06-08 01:00:00 17.9 5 Norte 15 Norte 0 -- -- 55
2019-06-08 00:00:00 16.5 4 Oeste 11 Noroeste 0 -- -- 34
2019-06-07 23:00:00 18.2 0 Calma 4 Sudoeste 0 -- -- 32
2019-06-07 22:00:00 21.7 6 Oeste 12 Oeste 0 -- -- 25
2019-06-07 21:00:00 23.4 4 Noroeste 15 Noroeste 0 -- -- 25
2019-06-07 20:00:00 26.2 8 Noroeste 26 Noroeste 0 -- -- 21
2019-06-07 19:00:00 26.8 8 Noroeste 35 Norte 0 -- -- 19
2019-06-07 18:00:00 26.5 12 Noroeste 38 Noroeste 0 -- -- 22
2019-06-07 17:00:00 26.2 15 Noroeste 35 Noroeste 0 -- -- 26
2019-06-07 16:00:00 25.6 10 Sur 37 Noroeste 0 -- -- 28
2019-06-07 15:00:00 24.9 14 Sudeste 37 Sur 0 -- -- 29
2019-06-07 14:00:00 23.8 9 Nordeste 40 Oeste 0 -- -- 35
2019-06-07 13:00:00 22.9 16 Sur 42 Noroeste 0 -- -- 40
2019-06-07 12:00:00 22.7 12 Nordeste 48 Norte 0 -- -- 45
2019-06-07 11:00:00 22 12 Sudeste 34 Norte 0 -- -- 46
2019-06-07 10:00:00 21 10 Norte 34 Norte 0 -- -- 50
2019-06-07 09:00:00 19.1 5 Norte 21 Norte 0 -- -- 51
2019-06-07 08:00:00 12.2 0 Calma 5 Sudeste 0 -- -- 87
2019-06-07 07:00:00 10.5 0 Calma 6 Sudoeste 0 -- -- 90
2019-06-07 06:00:00 11.1 0 Calma 11 Norte 0 -- -- 88
2019-06-07 05:00:00 11.7 2 Noroeste 6 Sudoeste 0 -- -- 87
2019-06-07 04:00:00 12.9 0 Calma 5 Sudeste 0 -- -- 87
2019-06-07 03:00:00 14.1 0 Calma 5 Oeste 0 -- -- 84
2019-06-07 02:00:00 15.9 6 Noroeste 12 Noroeste 0 -- -- 82
2019-06-07 01:00:00 16.3 6 Noroeste 11 Noroeste 0 -- -- 80
2019-06-07 00:00:00 17.2 7 Noroeste 15 Noroeste 0 -- -- 78
2019-06-06 23:00:00 17.9 10 Noroeste 19 Noroeste 0 -- -- 76
2019-06-06 22:00:00 19 12 Noroeste 17 Norte 0 -- -- 71
2019-06-06 21:00:00 21.1 8 Norte 19 Norte 0 -- -- 62
2019-06-06 20:00:00 23.8 9 Este 26 Este 0 -- -- 50
2019-06-06 19:00:00 25 11 Sudeste 34 Este 0 -- -- 49
2019-06-06 18:00:00 25.7 12 Sudeste 32 Este 0 -- -- 45
2019-06-06 17:00:00 26.1 12 Sur 31 Sudeste 0 -- -- 41
2019-06-06 16:00:00 25.3 16 Norte 41 Norte 0 -- -- 41
2019-06-06 15:00:00 26.6 14 Norte 25 Este 0 -- -- 36
2019-06-06 14:00:00 26.4 8 Noroeste 32 Nordeste 0 -- -- 33
2019-06-06 13:00:00 25.3 12 Este 22 Este 0 -- -- 27
2019-06-06 12:00:00 24 3 Este 10 Sudeste 0 -- -- 27
2019-06-06 11:00:00 20.7 4 Nordeste 10 Nordeste 0 -- -- 33
2019-06-06 10:00:00 17.8 3 Nordeste 9 Nordeste 0 -- -- 37
2019-06-06 09:00:00 14.2 3 Este 5 Este 0 -- -- 46
2019-06-06 08:00:00 9.8 0 Calma 3 Sudeste 0 -- -- 57
2019-06-06 07:00:00 7.9 0 Calma 4 Sudeste 0 -- -- 64
2019-06-06 06:00:00 8.4 0 Calma 5 Sudeste 0 -- -- 62
2019-06-06 05:00:00 9.1 0 Calma 4 Sudeste 0 -- -- 58
2019-06-06 04:00:00 10.1 0 Calma 4 Sudeste 0 -- -- 53
2019-06-06 03:00:00 11.2 3 Sur 5 Norte 0 -- -- 51
2019-06-06 02:00:00 12.2 2 Oeste 9 Sudeste 0 -- -- 46
2019-06-06 01:00:00 13.8 0 Calma 5 Noroeste 0 -- -- 41
2019-06-06 00:00:00 15.9 0 Calma 3 Este 0 -- -- 37
2019-06-05 23:00:00 18.3 0 Calma 10 Oeste -- -- -- 33
2019-06-05 22:00:00 19.8 5 Noroeste 10 Oeste 0 -- -- 28
2019-06-05 21:00:00 22.3 5 Noroeste 19 Norte 0 -- -- 23
2019-06-05 20:00:00 23.3 5 Oeste 28 Noroeste 0 -- -- 22
2019-06-05 19:00:00 23.8 12 Noroeste 35 Norte 0 -- -- 22
2019-06-05 18:00:00 24.7 19 Noroeste 47 Noroeste 0 -- -- 21
2019-06-05 17:00:00 24.6 22 Noroeste 43 Norte 0 -- -- 22
2019-06-05 16:00:00 24.6 15 Noroeste 49 Norte 0 -- -- 23
2019-06-05 15:00:00 23.5 17 Noroeste 54 Noroeste 0 -- -- 27
2019-06-05 14:00:00 22.4 16 Noroeste 48 Noroeste 0 -- -- 31
2019-06-05 13:00:00 21.9 12 Norte 49 Noroeste 0 -- -- 34
2019-06-05 12:00:00 20.9 17 Noroeste 51 Noroeste 0 -- -- 34
2019-06-05 11:00:00 20.6 14 Sudeste 61 Oeste 0 -- -- 34
2019-06-05 10:00:00 20.4 15 Oeste 48 Noroeste 0 -- -- 45
2019-06-05 09:00:00 20.3 12 Noroeste 37 Noroeste 0 -- -- 51
2019-06-05 08:00:00 19.8 20 Noroeste 40 Noroeste 0 -- -- 53
2019-06-05 07:00:00 20.6 10 Noroeste 27 Noroeste 0 -- -- 54
2019-06-05 06:00:00 21.1 8 Noroeste 27 Noroeste 0 -- -- 51
2019-06-05 05:00:00 15.3 3 Sudeste 11 Este 0 -- -- 79
2019-06-05 04:00:00 16 0 Calma 6 Noroeste 0 -- -- 78
2019-06-05 03:00:00 17.8 2 Nordeste 13 Norte 0 -- -- 73
2019-06-05 02:00:00 18.9 9 Noroeste 18 Norte 0 -- -- 70
2019-06-05 01:00:00 20.1 10 Noroeste 19 Norte 0 -- -- 67
2019-06-05 00:00:00 21.2 12 Norte 20 Norte 0 -- -- 62
2019-06-04 23:00:00 22.5 10 Norte 20 Norte 0 -- -- 57
2019-06-04 22:00:00 23.8 11 Norte 22 Norte 0 -- -- 51
2019-06-04 21:00:00 25.6 15 Norte 23 Norte 0 -- -- 49
2019-06-04 20:00:00 28.2 14 Noroeste 22 Norte 0 -- -- 42
2019-06-04 19:00:00 31.3 12 Norte 28 Este 0 -- -- 36
2019-06-04 18:00:00 32.2 14 Este 34 Norte 0 -- -- 35
2019-06-04 17:00:00 34 13 Nordeste 36 Sur 0 -- -- 29
2019-06-04 16:00:00 35.3 14 Este 32 Este 0 -- -- 18
2019-06-04 15:00:00 33.9 7 Nordeste 18 Sudeste 0 -- -- 23
2019-06-04 14:00:00 32.9 5 Noroeste 19 Este 0 -- -- 24
2019-06-04 13:00:00 31.2 6 Sudeste 14 Este 0 -- -- 29
2019-06-04 12:00:00 28.4 4 Sur 11 Sudeste 0 -- -- 35
2019-06-04 11:00:00 25.1 3 Sudeste 9 Norte 0 -- -- 41
2019-06-04 10:00:00 21.3 3 Norte 8 Este 0 -- -- 50
2019-06-04 09:00:00 18 3 Este 5 Este 0 -- -- 63
2019-06-04 08:00:00 14.3 0 Calma 4 Este 0 -- -- 76
2019-06-04 07:00:00 12.9 0 Calma 10 Norte 0 -- -- 81
2019-06-04 06:00:00 13.9 4 Noroeste 9 Norte 0 -- -- 78
2019-06-04 05:00:00 14.4 0 Calma 2 Norte 0 -- -- 76
2019-06-04 04:00:00 15.6 0 Calma 8 Noroeste 0 -- -- 73
2019-06-04 03:00:00 17.7 2 Norte 14 Noroeste 0 -- -- 67
2019-06-04 02:00:00 18.9 9 Noroeste 17 Norte 0 -- -- 64
2019-06-04 01:00:00 19.7 8 Noroeste 21 Noroeste 0 -- -- 60
2019-06-04 00:00:00 20.7 10 Noroeste 23 Norte 0 -- -- 56
2019-06-03 23:00:00 21.8 13 Noroeste 21 Noroeste 0 -- -- 55
2019-06-03 22:00:00 23.4 11 Norte 22 Noroeste 0 -- -- 51
2019-06-03 21:00:00 25.2 13 Noroeste 20 Noroeste 0 -- -- 47
2019-06-03 20:00:00 28.2 14 Noroeste 21 Noroeste 0 -- -- 40
2019-06-03 19:00:00 30.7 12 Norte 20 Norte 0 -- -- 36
2019-06-03 18:00:00 31.5 13 Norte 26 Nordeste 0 -- -- 36
2019-06-03 17:00:00 33.5 9 Nordeste 24 Nordeste 0 -- -- 30
2019-06-03 16:00:00 35.3 11 Sudeste 22 Sur 0 -- -- 21
2019-06-03 15:00:00 34.8 10 Sudeste 22 Este 0 -- -- 21
2019-06-03 14:00:00 32.9 13 Este 22 Este 0 -- -- 24
2019-06-03 13:00:00 31.6 7 Este 15 Este 0 -- -- 26
2019-06-03 12:00:00 28.6 5 Nordeste 13 Sudeste 0 -- -- 29
2019-06-03 11:00:00 24.8 3 Este 9 Este 0 -- -- 36
2019-06-03 10:00:00 21.1 4 Este 8 Sudeste 0 -- -- 42
2019-06-03 09:00:00 17.4 3 Sudeste 5 Sudeste 0 -- -- 51
2019-06-03 08:00:00 12.6 0 Calma 3 Este 0 -- -- 67
2019-06-03 07:00:00 11.2 0 Calma 4 Noroeste 0 -- -- 70
2019-06-03 06:00:00 12.2 0 Calma 12 Norte 0 -- -- 66
2019-06-03 05:00:00 12.3 0 Calma 3 Sur 0 -- -- 67
2019-06-03 04:00:00 13.3 0 Calma 4 Sudeste 0 -- -- 63
2019-06-03 03:00:00 14.7 0 Calma 3 Sur 0 -- -- 56
2019-06-03 02:00:00 16.8 0 Calma 4 Sudoeste 0 -- -- 48
2019-06-03 01:00:00 17.1 0 Calma 6 Sur 0 -- -- 51
2019-06-03 00:00:00 19.6 3 Nordeste 15 Oeste 0 -- -- 46
2019-06-02 23:00:00 21 9 Noroeste 18 Oeste 0 -- -- 42
2019-06-02 22:00:00 22.3 11 Noroeste 18 Noroeste 0 -- -- 39
2019-06-02 21:00:00 24.2 13 Noroeste 21 Norte 0 -- -- 36
2019-06-02 20:00:00 27 12 Norte 27 Norte 0 -- -- 33
2019-06-02 19:00:00 28.9 14 Norte 29 Norte 0 -- -- 30
2019-06-02 18:00:00 31 15 Norte 30 Norte 0 -- -- 27
2019-06-02 17:00:00 31.9 14 Norte 24 Norte 0 -- -- 26
2019-06-02 16:00:00 33 5 Sudeste 17 Este 0 -- -- 22
2019-06-02 15:00:00 32.4 7 Sudeste 15 Este 0 -- -- 23
2019-06-02 14:00:00 31 4 Nordeste 14 Nordeste 0 -- -- 23
2019-06-02 13:00:00 29.1 4 Sudeste 12 Sudeste 0 -- -- 23
2019-06-02 12:00:00 26.2 3 Sudeste 8 Nordeste 0 -- -- 28
2019-06-02 11:00:00 22.3 3 Sur 8 Este 0 -- -- 35
2019-06-02 10:00:00 19.3 3 Este 7 Sudeste 0 -- -- 42
2019-06-02 09:00:00 15.7 2 Este 5 Nordeste 0 -- -- 50
2019-06-02 08:00:00 11 0 Calma 3 Este 0 -- -- 68
2019-06-02 07:00:00 9.4 0 Calma 2 Este 0 -- -- 74
2019-06-02 06:00:00 10.1 0 Calma 0 Calma 0 -- -- 72
2019-06-02 05:00:00 10.8 0 Calma 2 Sudoeste 0 -- -- 69
2019-06-02 04:00:00 11.7 0 Calma 3 Sudeste 0 -- -- 63
2019-06-02 03:00:00 12.7 0 Calma 2 Este 0 -- -- 61
2019-06-02 02:00:00 14.3 0 Calma 2 Sudeste 0 -- -- 55
2019-06-02 01:00:00 15.7 0 Calma 4 Este 0 -- -- 52
2019-06-02 00:00:00 18.4 0 Calma 13 Noroeste 0 -- -- 43
2019-06-01 23:00:00 20 9 Noroeste 17 Noroeste 0 -- -- 38
2019-06-01 22:00:00 21.2 8 Norte 20 Norte 0 -- -- 35
2019-06-01 21:00:00 23.2 12 Norte 23 Norte 0 -- -- 33
2019-06-01 20:00:00 26.6 13 Norte 21 Norte 0 -- -- 32
2019-06-01 19:00:00 28.8 8 Sudeste 21 Este 0 -- -- 27
2019-06-01 18:00:00 29.8 9 Este 23 Este 0 -- -- 26
2019-06-01 17:00:00 30.1 9 Este 22 Sudeste 0 -- -- 24
2019-06-01 16:00:00 30.6 8 Este 24 Nordeste 0 -- -- 23
2019-06-01 15:00:00 29.5 11 Nordeste 29 Norte 0 -- -- 26
2019-06-01 14:00:00 28.6 14 Norte 25 Norte 0 -- -- 29
2019-06-01 13:00:00 27.7 5 Sudeste 17 Nordeste 0 -- -- 32
2019-06-01 12:00:00 26 3 Este 12 Este 0 -- -- 37
2019-06-01 11:00:00 22.6 4 Este 9 Este 0 -- -- 44
2019-06-01 10:00:00 18.7 3 Sudeste 8 Este 0 -- -- 53
2019-06-01 09:00:00 15.5 4 Este 8 Sudeste 0 -- -- 62
2019-06-01 08:00:00 11.2 0 Calma 3 Norte 0 -- -- 79
2019-06-01 07:00:00 9.8 0 Calma 4 Noroeste 0 -- -- 82
2019-06-01 06:00:00 10.5 0 Calma 2 Sudeste 0 -- -- 79
2019-06-01 05:00:00 11.4 0 Calma 0 Calma 0 -- -- 76
2019-06-01 04:00:00 12.6 0 Calma 2 Sudoeste 0 -- -- 71
2019-06-01 03:00:00 13.6 0 Calma 3 Este 0 -- -- 68
2019-06-01 02:00:00 15 0 Calma 6 Oeste 0 -- -- 64
2019-06-01 01:00:00 16.9 3 Noroeste 13 Noroeste 0 -- -- 58
2019-06-01 00:00:00 18.2 7 Noroeste 16 Norte 0 -- -- 53
2019-05-31 23:00:00 19 10 Noroeste 16 Norte 0 -- -- 50
2019-05-31 22:00:00 20.8 3 Este 15 Sudeste 0 -- -- 42
2019-05-31 21:00:00 22.6 10 Este 24 Norte 0 -- -- 38
2019-05-31 20:00:00 24.5 13 Norte 28 Nordeste 0 -- -- 38
2019-05-31 19:00:00 27.6 11 Nordeste 24 Este 0 -- -- 34
2019-05-31 18:00:00 29.1 12 Este 24 Este 0 -- -- 31
2019-05-31 17:00:00 29.7 7 Este 24 Sudeste 0 -- -- 27
2019-05-31 16:00:00 29.7 9 Sudeste 22 Norte 0 -- -- 27
2019-05-31 15:00:00 28.7 6 Norte 24 Noroeste 0 -- -- 29
2019-05-31 14:00:00 28 9 Nordeste 19 Nordeste 0 -- -- 29
2019-05-31 13:00:00 26.4 9 Noroeste 17 Norte 0 -- -- 34
2019-05-31 12:00:00 25.6 5 Sudeste 14 Sudeste 0 -- -- 35
2019-05-31 11:00:00 22.5 3 Sur 10 Este 0 -- -- 45
2019-05-31 10:00:00 18.6 4 Este 8 Este 0 -- -- 55
2019-05-31 09:00:00 15.3 2 Nordeste 6 Este 0 -- -- 64
2019-05-31 08:00:00 11.1 0 Calma 2 Este 0 -- -- 78
2019-05-31 07:00:00 9.3 0 Calma -- -- 0 -- -- 83
2019-05-31 06:00:00 10 0 Calma -- -- 0 -- -- 81
2019-05-31 05:00:00 10.7 0 Calma 3 Noroeste 0 -- -- 78
2019-05-31 04:00:00 11.8 0 Calma 2 Sur 0 -- -- 74
2019-05-31 03:00:00 12.7 0 Calma 3 Sudeste 0 -- -- 71
2019-05-31 02:00:00 14.1 0 Calma 5 Sudeste 0 -- -- 65
2019-05-31 01:00:00 15.9 0 Calma 9 Norte 0 -- -- 58
2019-05-31 00:00:00 18 7 Noroeste 14 Noroeste 0 -- -- 50
2019-05-30 23:00:00 18.7 3 Noroeste 9 Norte 0 -- -- 51
2019-05-30 22:00:00 21.4 4 Noroeste 18 Este 0 -- -- 43
2019-05-30 21:00:00 23.8 4 Sudeste 21 Sudeste 0 -- -- 39
2019-05-30 20:00:00 26 8 Sudeste 24 Este 0 -- -- 34
2019-05-30 19:00:00 27.7 9 Sudeste 23 Sudeste 0 -- -- 27
2019-05-30 18:00:00 28.9 7 Este 24 Este 0 -- -- 26
2019-05-30 17:00:00 28.6 10 Este 24 Este 0 -- -- 26
2019-05-30 16:00:00 28 12 Norte 24 Nordeste 0 -- -- 27
2019-05-30 15:00:00 27.1 8 Nordeste 21 Norte 0 -- -- 29
2019-05-30 14:00:00 25.9 9 Sudeste 18 Sudeste 0 -- -- 32
2019-05-30 13:00:00 24.8 5 Sur 15 Noroeste 0 -- -- 34
2019-05-30 12:00:00 23.4 5 Sudeste 13 Este 0 -- -- 35
2019-05-30 11:00:00 20.4 4 Este 12 Este 0 -- -- 43
2019-05-30 10:00:00 17 3 Nordeste 8 Nordeste 0 -- -- 50
2019-05-30 09:00:00 13.5 0 Calma 5 Este 0 -- -- 59
2019-05-30 08:00:00 9.3 0 Calma 3 Este 0 -- -- 77
2019-05-30 07:00:00 7.6 0 Calma 2 Sudeste 0 -- -- 81
2019-05-30 06:00:00 8.2 0 Calma 2 Este 0 -- -- 78
2019-05-30 05:00:00 8.9 0 Calma 3 Oeste 0 -- -- 76
2019-05-30 04:00:00 9.7 0 Calma 3 Este 0 -- -- 73
2019-05-30 03:00:00 10.8 0 Calma 2 Sudoeste 0 -- -- 67
2019-05-30 02:00:00 11.6 0 Calma 3 Sur 0 -- -- 64
2019-05-30 01:00:00 13.1 0 Calma 4 Sudeste 0 -- -- 59
2019-05-30 00:00:00 14.5 0 Calma 5 Este 0 -- -- 54
2019-05-29 23:00:00 16.1 0 Calma 5 Sudoeste 0 -- -- 47
2019-05-29 22:00:00 18.3 2 Oeste 14 Este 0 -- -- 41
2019-05-29 21:00:00 20.6 6 Este 19 Sur 0 -- -- 36
2019-05-29 20:00:00 23.3 8 Sudeste 19 Este 0 -- -- 34
2019-05-29 19:00:00 25.4 6 Nordeste 23 Norte 0 -- -- 31
2019-05-29 18:00:00 25.5 12 Nordeste 32 Norte 0 -- -- 31
2019-05-29 17:00:00 26.7 8 Noroeste 22 Norte 0 -- -- 25
2019-05-29 16:00:00 25.6 5 Sur 18 Sudeste 0 -- -- 31
2019-05-29 15:00:00 24.4 7 Sudeste 22 Este 0 -- -- 32
2019-05-29 14:00:00 22.9 5 Sudeste 19 Sudeste 0 -- -- 33
2019-05-29 13:00:00 21.6 6 Sudeste 19 Sudeste 0 -- -- 35
2019-05-29 12:00:00 20.5 7 Nordeste 15 Sudeste 0 -- -- 37
2019-05-29 11:00:00 19.1 3 Nordeste 14 Este 0 -- -- 40
2019-05-29 10:00:00 17.2 8 Este 18 Sudeste 0 -- -- 41
2019-05-29 09:00:00 15.2 5 Este 11 Este 0 -- -- 52
2019-05-29 08:00:00 11.7 0 Calma 4 Nordeste 0 -- -- 63
2019-05-29 07:00:00 10.3 0 Calma 3 Oeste 0 -- -- 64
2019-05-29 06:00:00 11.4 0 Calma 13 Oeste 0 -- -- 62
2019-05-29 05:00:00 13.5 6 Sudoeste 18 Noroeste 0 -- -- 53
2019-05-29 04:00:00 11.1 0 Calma 6 Este 0 -- -- 80
2019-05-29 03:00:00 12.4 3 Noroeste 6 Sur 0 -- -- 77
2019-05-29 02:00:00 13.3 3 Noroeste 5 Norte 0 -- -- 73
2019-05-29 01:00:00 14.7 0 Calma 5 Noroeste 0 -- -- 70
2019-05-29 00:00:00 15.8 0 Calma 9 Noroeste 0 -- -- 66
2019-05-28 23:00:00 17.5 2 Noroeste 11 Oeste 0 -- -- 59
2019-05-28 22:00:00 18.6 8 Noroeste 12 Norte 0 -- -- 59
2019-05-28 21:00:00 20.2 10 Norte 24 Nordeste 0 -- -- 55
2019-05-28 20:00:00 22.4 13 Norte 28 Norte 0 -- -- 51
2019-05-28 19:00:00 24.6 13 Nordeste 33 Nordeste 0 -- -- 45
2019-05-28 18:00:00 27.4 14 Nordeste 31 Norte 0 -- -- 39
2019-05-28 17:00:00 28.7 17 Norte 30 Norte 0 -- -- 38
2019-05-28 16:00:00 29 12 Norte 26 Norte 0 -- -- 36
2019-05-28 15:00:00 28.9 12 Norte 37 Noroeste 0 -- -- 30
2019-05-28 14:00:00 27.7 6 Norte 25 Noroeste 0 -- -- 33
2019-05-28 13:00:00 26.3 8 Sudeste 16 Sur 0 -- -- 40
2019-05-28 12:00:00 24.1 6 Norte 14 Norte 0 -- -- 43
2019-05-28 11:00:00 22.6 5 Norte 13 Nordeste 0 -- -- 48
2019-05-28 10:00:00 19.3 3 Sudeste 9 Sudeste 0 -- -- 58
2019-05-28 09:00:00 16 3 Este 5 Este 0 -- -- 68
2019-05-28 08:00:00 11.5 0 Calma 4 Sudeste 0 -- -- 85
2019-05-28 07:00:00 10.8 0 Calma 2 Oeste 0 -- -- 86
2019-05-28 06:00:00 11.3 0 Calma 2 Norte 0 -- -- 84
2019-05-28 05:00:00 11.8 0 Calma 2 Sur 0 -- -- 83
2019-05-28 04:00:00 12.4 0 Calma 4 Sudeste 0 -- -- 81
2019-05-28 03:00:00 13.3 0 Calma 2 Sudeste 0 -- -- 79
2019-05-28 02:00:00 14.2 0 Calma 2 Sudoeste 0 -- -- 76
2019-05-28 01:00:00 15.2 0 Calma 2 Nordeste 0 -- -- 72
2019-05-28 00:00:00 16.4 0 Calma 4 Noroeste 0 -- -- 68
2019-05-27 23:00:00 18.1 0 Calma 9 Noroeste 0 -- -- 61
2019-05-27 22:00:00 19.8 5 Noroeste 17 Noroeste 0 -- -- 58
2019-05-27 21:00:00 21.4 10 Norte 23 Nordeste 0 -- -- 54
2019-05-27 20:00:00 23 10 Norte 22 Nordeste 0 -- -- 53
2019-05-27 19:00:00 24.5 13 Norte 28 Norte 0 -- -- 49
2019-05-27 18:00:00 26.9 15 Norte 33 Este 0 -- -- 42
2019-05-27 17:00:00 30.3 10 Sur 20 Sur 0 -- -- 26
2019-05-27 16:00:00 30.2 5 Noroeste 23 Noroeste 0 -- -- 28
2019-05-27 15:00:00 28.9 7 Norte 27 Sudoeste 0 -- -- 30
2019-05-27 14:00:00 27.5 9 Oeste 25 Noroeste 0 -- -- 33
2019-05-27 13:00:00 25.6 6 Noroeste 24 Noroeste 0 -- -- 37
2019-05-27 12:00:00 23.6 6 Noroeste 21 Oeste 0 -- -- 43
2019-05-27 11:00:00 22 5 Este 10 Este 0 -- -- 50
2019-05-27 10:00:00 18.4 2 Este 7 Este 0 -- -- 59
2019-05-27 09:00:00 14.8 4 Nordeste 7 Nordeste 0 -- -- 70
2019-05-27 08:00:00 10.8 0 Calma 6 Norte 0 -- -- 87
2019-05-27 07:00:00 9.1 0 Calma 3 Sudoeste 0 -- -- 88
2019-05-27 06:00:00 9.8 0 Calma 4 Noroeste 0 -- -- 87
2019-05-27 05:00:00 10.4 0 Calma 6 Sudeste 0 -- -- 85
2019-05-27 04:00:00 10.9 0 Calma 2 Sudeste 0 -- -- 83
2019-05-27 03:00:00 11.6 0 Calma 4 Sur 0 -- -- 81
2019-05-27 02:00:00 12.6 0 Calma 3 Sudeste 0 -- -- 77
2019-05-27 01:00:00 13.9 0 Calma 2 Norte 0 -- -- 72
2019-05-27 00:00:00 15.3 0 Calma 4 Sur 0 -- -- 66